createdAt,value
2023-06-17T00:01:35.103Z,5.45
2023-06-17T00:04:03.500Z,6.13
2023-06-17T00:06:30.399Z,5.70
2023-06-17T00:08:58.462Z,5.95
2023-06-17T00:11:25.222Z,5.30
2023-06-17T00:13:53.181Z,5.90
2023-06-17T00:16:22.032Z,5.55
2023-06-17T00:18:52.981Z,5.40
2023-06-17T00:21:20.160Z,5.78
2023-06-17T00:23:46.911Z,6.15
2023-06-17T00:26:13.619Z,5.88
2023-06-17T00:28:41.227Z,6.65
2023-06-17T00:31:07.916Z,6.63
2023-06-17T00:33:34.903Z,7.63
2023-06-17T00:36:01.565Z,7.70
2023-06-17T00:38:28.456Z,6.80
2023-06-17T00:40:55.193Z,5.57
2023-06-17T00:43:21.964Z,5.72
2023-06-17T00:45:49.242Z,5.03
2023-06-17T00:48:16.079Z,5.75
2023-06-17T00:50:45.481Z,6.13
2023-06-17T00:53:12.231Z,6.45
2023-06-17T00:55:41.018Z,6.43
2023-06-17T00:58:08.565Z,6.20
2023-06-17T01:00:35.297Z,6.25
2023-06-17T01:03:30.841Z,6.43
2023-06-17T01:06:00.818Z,6.30
2023-06-17T01:08:37.950Z,5.93
2023-06-17T01:11:07.545Z,6.50
2023-06-17T01:13:34.894Z,7.03
2023-06-17T01:16:02.682Z,6.85
2023-06-17T01:18:30.916Z,6.93
2023-06-17T01:20:58.015Z,7.10
2023-06-17T01:23:32.339Z,7.25
2023-06-17T01:25:59.366Z,7.07
2023-06-17T01:28:26.002Z,6.90
2023-06-17T01:30:55.662Z,6.13
2023-06-17T01:33:23.098Z,5.82
2023-06-17T01:36:11.461Z,5.78
2023-06-17T01:38:39.265Z,6.22
2023-06-17T01:41:10.417Z,5.70
2023-06-17T01:43:37.891Z,5.97
2023-06-17T01:46:05.456Z,5.47
2023-06-17T01:48:32.295Z,5.93
2023-06-17T01:50:59.144Z,6.00
2023-06-17T01:53:26.075Z,5.72
2023-06-17T01:55:53.729Z,5.60
2023-06-17T01:58:20.647Z,5.50
2023-06-17T02:00:47.297Z,5.63
2023-06-17T02:03:14.149Z,5.25
2023-06-17T02:05:40.860Z,5.07
2023-06-17T02:08:07.567Z,5.68
2023-06-17T02:10:34.320Z,6.13
2023-06-17T02:13:04.434Z,5.88
2023-06-17T02:15:31.919Z,6.13
2023-06-17T02:17:59.070Z,5.35
2023-06-17T02:20:26.971Z,6.28
2023-06-17T02:22:53.819Z,7.15
2023-06-17T02:25:22.623Z,6.13
2023-06-17T02:27:49.939Z,6.65
2023-06-17T02:30:16.586Z,6.22
2023-06-17T02:32:43.426Z,6.32
2023-06-17T02:35:11.681Z,6.43
2023-06-17T02:37:38.724Z,6.20
2023-06-17T02:40:09.770Z,5.75
2023-06-17T02:42:37.189Z,5.80
2023-06-17T02:45:04.446Z,6.47
2023-06-17T02:47:31.564Z,6.10
2023-06-17T02:49:59.027Z,5.80
2023-06-17T02:52:26.043Z,5.88
2023-06-17T02:54:53.129Z,6.30
2023-06-17T02:57:22.364Z,5.72
2023-06-17T02:59:49.200Z,6.38
2023-06-17T03:02:16.248Z,5.93
2023-06-17T03:04:42.962Z,6.35
2023-06-17T03:07:12.157Z,6.35
2023-06-17T03:09:38.932Z,6.20
2023-06-17T03:12:07.180Z,6.72
2023-06-17T03:14:34.626Z,7.38
2023-06-17T03:17:04.185Z,6.90
2023-06-17T03:19:31.102Z,7.03
2023-06-17T03:21:57.768Z,6.70
2023-06-17T03:24:27.068Z,6.00
2023-06-17T03:26:55.359Z,6.78
2023-06-17T03:29:22.146Z,6.43
2023-06-17T03:31:52.549Z,6.28
2023-06-17T03:34:21.018Z,7.25
2023-06-17T03:36:48.677Z,6.32
2023-06-17T03:39:15.627Z,6.78
2023-06-17T03:41:42.558Z,6.07
2023-06-17T03:44:09.577Z,6.63
2023-06-17T03:46:36.260Z,5.85
2023-06-17T03:49:03.845Z,5.90
2023-06-17T03:51:31.750Z,5.85
2023-06-17T03:53:59.286Z,6.05
2023-06-17T03:56:27.663Z,6.07
2023-06-17T03:58:55.192Z,6.20
2023-06-17T04:01:22.160Z,5.40
2023-06-17T04:03:50.185Z,6.30
2023-06-17T04:06:17.906Z,5.57
2023-06-17T04:08:44.990Z,5.55
2023-06-17T04:11:14.378Z,6.30
2023-06-17T04:13:41.255Z,6.50
2023-06-17T04:16:08.332Z,7.25
2023-06-17T04:18:35.363Z,6.70
2023-06-17T04:21:02.814Z,6.47
2023-06-17T04:23:31.684Z,7.53
2023-06-17T04:26:00.050Z,6.50
2023-06-17T04:28:32.953Z,6.22
2023-06-17T04:31:01.950Z,6.40
2023-06-17T04:33:31.831Z,6.28
2023-06-17T04:36:00.478Z,6.65
2023-06-17T04:38:27.486Z,6.60
2023-06-17T04:40:54.229Z,7.15
2023-06-17T04:43:23.838Z,6.97
2023-06-17T04:45:52.712Z,6.70
2023-06-17T04:48:20.701Z,6.75
2023-06-17T04:50:48.884Z,6.65
2023-06-17T04:53:15.579Z,6.65
2023-06-17T04:55:42.880Z,7.07
2023-06-17T04:58:11.079Z,6.43
2023-06-17T05:01:00.580Z,7.20
2023-06-17T05:03:30.577Z,6.88
2023-06-17T05:05:57.282Z,6.80
2023-06-17T05:08:28.290Z,6.93
2023-06-17T05:10:56.266Z,6.32
2023-06-17T05:13:23.341Z,6.50
2023-06-17T05:15:50.894Z,6.03
2023-06-17T05:18:18.046Z,6.93
2023-06-17T05:20:45.216Z,6.32
2023-06-17T05:23:12.944Z,6.70
2023-06-17T05:25:39.613Z,6.40
2023-06-17T05:28:11.598Z,6.25
2023-06-17T05:30:41.765Z,6.15
2023-06-17T05:33:10.229Z,6.38
2023-06-17T05:35:37.342Z,6.32
2023-06-17T05:38:04.470Z,6.30
2023-06-17T05:40:31.148Z,5.75
2023-06-17T05:42:58.525Z,6.15
2023-06-17T05:45:26.104Z,6.40
2023-06-17T05:47:53.331Z,6.10
2023-06-17T05:50:20.933Z,6.05
2023-06-17T05:52:47.935Z,5.82
2023-06-17T05:55:15.679Z,5.82
2023-06-17T05:57:42.369Z,5.75
2023-06-17T06:00:10.328Z,6.22
2023-06-17T06:02:44.561Z,5.38
2023-06-17T06:05:11.966Z,5.50
2023-06-17T06:07:39.107Z,5.00
2023-06-17T06:10:07.408Z,4.90
2023-06-17T06:12:36.430Z,5.57
2023-06-17T06:15:04.261Z,5.32
2023-06-17T06:17:31.359Z,5.60
2023-06-17T06:19:58.515Z,5.07
2023-06-17T06:22:25.263Z,5.57
2023-06-17T06:24:52.185Z,5.07
2023-06-17T06:27:18.858Z,4.88
2023-06-17T06:29:45.812Z,5.80
2023-06-17T06:32:14.030Z,5.30
2023-06-17T06:34:41.288Z,5.28
2023-06-17T06:37:08.165Z,5.20
2023-06-17T06:39:36.943Z,5.10
2023-06-17T06:42:03.887Z,4.88
2023-06-17T06:44:51.304Z,5.13
2023-06-17T06:47:18.894Z,4.82
2023-06-17T06:49:46.325Z,5.00
2023-06-17T06:52:14.428Z,5.13
2023-06-17T06:54:41.205Z,5.35
2023-06-17T06:57:08.661Z,4.68
2023-06-17T06:59:35.600Z,4.90
2023-06-17T07:02:02.252Z,5.00
2023-06-17T07:04:29.153Z,5.10
2023-06-17T07:06:58.782Z,4.68
2023-06-17T07:09:30.770Z,4.85
2023-06-17T07:11:57.501Z,4.80
2023-06-17T07:14:24.400Z,4.82
2023-06-17T07:16:51.196Z,5.10
2023-06-17T07:19:18.629Z,4.57
2023-06-17T07:21:45.380Z,4.82
2023-06-17T07:24:12.476Z,4.53
2023-06-17T07:26:39.188Z,4.70
2023-06-17T07:29:05.942Z,4.68
2023-06-17T07:31:32.670Z,4.93
2023-06-17T07:34:00.095Z,4.88
2023-06-17T07:36:27.391Z,4.88
2023-06-17T07:38:54.252Z,5.00
2023-06-17T07:41:21.881Z,5.50
2023-06-17T07:43:48.595Z,4.97
2023-06-17T07:46:15.410Z,4.80
2023-06-17T07:48:42.095Z,5.30
2023-06-17T07:51:08.813Z,4.72
2023-06-17T07:53:35.565Z,5.00
2023-06-17T07:56:02.494Z,5.00
2023-06-17T07:58:29.113Z,4.85
2023-06-17T08:00:55.814Z,5.07
2023-06-17T08:03:23.286Z,4.90
2023-06-17T08:05:50.070Z,4.93
2023-06-17T08:08:16.858Z,5.43
2023-06-17T08:10:44.255Z,5.10
2023-06-17T08:13:10.987Z,5.18
2023-06-17T08:15:37.648Z,5.25
2023-06-17T08:18:04.562Z,5.32
2023-06-17T08:20:31.277Z,5.20
2023-06-17T08:22:57.944Z,4.65
2023-06-17T08:25:24.705Z,5.35
2023-06-17T08:27:51.932Z,5.38
2023-06-17T08:30:19.510Z,4.80
2023-06-17T08:32:46.513Z,4.85
2023-06-17T08:35:13.438Z,5.18
2023-06-17T08:37:40.326Z,5.40
2023-06-17T08:40:08.001Z,4.72
2023-06-17T08:42:34.653Z,4.80
2023-06-17T08:45:02.301Z,4.55
2023-06-17T08:47:29.045Z,4.80
2023-06-17T08:49:57.117Z,5.32
2023-06-17T08:52:24.788Z,4.90
2023-06-17T08:54:52.173Z,4.85
2023-06-17T08:57:19.058Z,4.88
2023-06-17T08:59:46.318Z,4.53
2023-06-17T09:02:16.062Z,4.45
2023-06-17T09:04:43.260Z,4.57
2023-06-17T09:07:10.703Z,4.80
2023-06-17T09:09:38.064Z,4.60
2023-06-17T09:12:06.634Z,4.93
2023-06-17T09:14:34.431Z,4.45
2023-06-17T09:17:02.118Z,4.60
2023-06-17T09:19:31.325Z,5.03
2023-06-17T09:22:06.087Z,5.10
2023-06-17T09:24:33.226Z,5.07
2023-06-17T09:27:00.374Z,4.93
2023-06-17T09:29:30.275Z,5.18
2023-06-17T09:31:57.357Z,5.03
2023-06-17T09:34:25.682Z,4.72
2023-06-17T09:36:54.169Z,4.60
2023-06-17T09:39:28.905Z,4.32
2023-06-17T09:41:55.680Z,5.15
2023-06-17T09:44:23.469Z,5.07
2023-06-17T09:46:51.643Z,4.72
2023-06-17T09:49:24.686Z,5.03
2023-06-17T09:51:52.894Z,4.93
2023-06-17T09:54:20.992Z,4.57
2023-06-17T09:56:47.899Z,4.70
2023-06-17T09:59:15.742Z,4.55
2023-06-17T10:01:42.389Z,4.50
2023-06-17T10:04:09.195Z,4.45
2023-06-17T10:06:38.036Z,4.63
2023-06-17T10:09:09.714Z,4.20
2023-06-17T10:11:36.968Z,4.45
2023-06-17T10:14:09.334Z,4.20
2023-06-17T10:16:39.888Z,4.38
2023-06-17T10:19:09.274Z,4.05
2023-06-17T10:21:39.346Z,3.90
2023-06-17T10:24:06.798Z,4.00
2023-06-17T10:26:33.489Z,4.30
2023-06-17T10:29:03.094Z,4.38
2023-06-17T10:31:31.789Z,3.97
2023-06-17T10:34:02.402Z,4.40
2023-06-17T10:36:29.422Z,4.68
2023-06-17T10:39:13.712Z,4.07
2023-06-17T10:41:43.476Z,4.38
2023-06-17T10:44:29.511Z,4.10
2023-06-17T10:46:58.423Z,4.15
2023-06-17T10:49:25.310Z,4.60
2023-06-17T10:51:58.356Z,4.50
2023-06-17T10:54:32.679Z,4.13
2023-06-17T10:57:03.408Z,4.13
2023-06-17T10:59:33.512Z,4.25
2023-06-17T11:02:07.684Z,4.40
2023-06-17T11:04:42.002Z,4.68
2023-06-17T11:07:08.950Z,4.20
2023-06-17T11:09:37.200Z,4.00
2023-06-17T11:12:04.975Z,4.45
2023-06-17T11:14:32.668Z,4.47
2023-06-17T11:16:59.390Z,4.32
2023-06-17T11:19:26.266Z,3.95
2023-06-17T11:21:58.397Z,4.68
2023-06-17T11:24:25.503Z,4.13
2023-06-17T11:26:52.208Z,4.35
2023-06-17T11:29:19.798Z,4.30
2023-06-17T11:31:46.733Z,4.32
2023-06-17T11:34:13.664Z,4.28
2023-06-17T11:36:40.439Z,3.95
2023-06-17T11:39:07.510Z,4.30
2023-06-17T11:41:34.726Z,4.50
2023-06-17T11:44:02.200Z,4.15
2023-06-17T11:46:29.057Z,3.97
2023-06-17T11:48:56.430Z,4.43
2023-06-17T11:51:24.342Z,4.40
2023-06-17T11:53:51.380Z,4.30
2023-06-17T11:56:23.040Z,4.88
2023-06-17T11:58:52.279Z,4.35
2023-06-17T12:01:25.393Z,4.47
2023-06-17T12:03:52.249Z,4.07
2023-06-17T12:06:20.497Z,4.10
2023-06-17T12:08:56.965Z,4.28
2023-06-17T12:11:36.451Z,4.43
2023-06-17T12:14:10.403Z,4.65
2023-06-17T12:16:38.327Z,4.38
2023-06-17T12:19:07.307Z,4.50
2023-06-17T12:21:35.071Z,4.70
2023-06-17T12:24:03.033Z,4.55
2023-06-17T12:26:30.870Z,4.45
2023-06-17T12:28:59.101Z,4.40
2023-06-17T12:31:27.938Z,4.43
2023-06-17T12:33:55.314Z,4.90
2023-06-17T12:36:21.942Z,4.57
2023-06-17T12:38:49.250Z,4.95
2023-06-17T12:41:16.111Z,4.45
2023-06-17T12:43:42.868Z,4.80
2023-06-17T12:46:09.759Z,4.70
2023-06-17T12:48:36.506Z,4.57
2023-06-17T12:51:04.808Z,4.78
2023-06-17T12:53:31.681Z,4.95
2023-06-17T12:55:58.363Z,4.90
2023-06-17T12:58:26.060Z,5.30
2023-06-17T13:00:53.514Z,5.47
2023-06-17T13:03:20.289Z,5.45
2023-06-17T13:05:51.222Z,5.00
2023-06-17T13:08:18.184Z,5.28
2023-06-17T13:10:44.898Z,5.45
2023-06-17T13:13:11.749Z,4.97
2023-06-17T13:15:38.810Z,5.38
2023-06-17T13:18:07.870Z,5.13
2023-06-17T13:20:34.728Z,5.30
2023-06-17T13:23:01.578Z,5.13
2023-06-17T13:25:28.233Z,5.07
2023-06-17T13:27:55.243Z,5.38
2023-06-17T13:30:22.117Z,5.35
2023-06-17T13:32:48.950Z,5.10
2023-06-17T13:35:16.550Z,5.03
2023-06-17T13:37:43.273Z,5.15
2023-06-17T13:40:10.139Z,5.40
2023-06-17T13:42:36.965Z,5.13
2023-06-17T13:45:05.552Z,5.15
2023-06-17T13:47:33.608Z,5.00
2023-06-17T13:50:00.999Z,5.00
2023-06-17T13:52:27.792Z,4.80
2023-06-17T13:54:54.430Z,5.07
2023-06-17T13:57:21.132Z,5.32
2023-06-17T13:59:48.307Z,5.03
2023-06-17T14:02:15.031Z,4.95
2023-06-17T14:04:43.255Z,4.95
2023-06-17T14:07:10.316Z,4.85
2023-06-17T14:09:37.321Z,5.10
2023-06-17T14:12:04.239Z,4.97
2023-06-17T14:14:31.133Z,4.93
2023-06-17T14:17:00.590Z,4.82
2023-06-17T14:19:29.168Z,4.55
2023-06-17T14:22:07.900Z,4.70
2023-06-17T14:24:37.885Z,5.30
2023-06-17T14:27:29.046Z,4.72
2023-06-17T14:29:55.945Z,4.85
2023-06-17T14:32:22.593Z,4.50
2023-06-17T14:34:50.224Z,5.22
2023-06-17T14:37:17.574Z,4.97
2023-06-17T14:39:44.389Z,4.68
2023-06-17T14:42:12.705Z,5.07
2023-06-17T14:44:39.523Z,4.88
2023-06-17T14:47:07.382Z,4.53
2023-06-17T14:49:34.410Z,4.85
2023-06-17T14:52:01.680Z,4.65
2023-06-17T14:54:28.357Z,4.65
2023-06-17T14:56:55.621Z,4.72
2023-06-17T14:59:22.399Z,4.78
2023-06-17T15:01:49.060Z,4.90
2023-06-17T15:04:15.892Z,4.63
2023-06-17T15:06:42.760Z,4.80
2023-06-17T15:09:28.405Z,5.00
2023-06-17T15:11:56.536Z,4.80
2023-06-17T15:14:23.689Z,4.93
2023-06-17T15:16:51.039Z,4.30
2023-06-17T15:19:18.523Z,4.93
2023-06-17T15:21:46.159Z,5.05
2023-06-17T15:24:13.340Z,4.88
2023-06-17T15:26:40.592Z,4.88
2023-06-17T15:29:07.773Z,5.00
2023-06-17T15:31:34.831Z,5.45
2023-06-17T15:34:01.764Z,5.00
2023-06-17T15:36:28.926Z,5.30
2023-06-17T15:39:18.768Z,5.05
2023-06-17T15:46:42.400Z,5.35
2023-06-17T15:49:09.694Z,5.18
2023-06-17T15:51:36.681Z,5.50
2023-06-17T15:54:04.057Z,5.03
2023-06-17T15:56:31.074Z,5.43
2023-06-17T15:58:58.857Z,5.95
2023-06-17T16:01:25.623Z,5.60
2023-06-17T16:03:52.299Z,5.57
2023-06-17T16:06:18.997Z,5.13
2023-06-17T16:11:13.038Z,5.15
2023-06-17T16:13:39.780Z,5.45
2023-06-17T16:16:06.764Z,5.50
2023-06-17T16:18:33.487Z,5.45
2023-06-17T16:21:00.111Z,5.85
2023-06-17T16:23:26.881Z,5.72
2023-06-17T16:25:55.873Z,4.95
2023-06-17T16:28:23.011Z,4.95
2023-06-17T16:30:50.125Z,5.05
2023-06-17T16:33:16.803Z,5.05
2023-06-17T16:35:43.498Z,4.93
2023-06-17T16:38:10.843Z,4.97
2023-06-17T16:40:37.532Z,5.00
2023-06-17T16:43:04.182Z,5.20
2023-06-17T16:45:30.869Z,4.90
2023-06-17T16:47:57.582Z,4.68
2023-06-17T16:50:24.542Z,4.80
2023-06-17T16:52:51.474Z,5.20
2023-06-17T16:55:18.091Z,4.63
2023-06-17T16:57:44.774Z,4.47
2023-06-17T17:00:12.896Z,4.78
2023-06-17T17:02:39.905Z,4.78
2023-06-17T17:05:07.004Z,4.28
2023-06-17T17:07:33.712Z,4.80
2023-06-17T17:10:00.402Z,4.57
2023-06-17T17:12:27.052Z,4.75
2023-06-17T17:14:55.812Z,4.68
2023-06-17T17:17:22.549Z,4.70
2023-06-17T17:19:49.276Z,4.88
2023-06-17T17:22:16.024Z,4.68
2023-06-17T17:24:44.177Z,4.65
2023-06-17T17:27:11.460Z,4.75
2023-06-17T17:29:38.136Z,4.65
2023-06-17T17:32:05.608Z,4.60
2023-06-17T17:34:32.388Z,4.60
2023-06-17T17:36:59.127Z,4.32
2023-06-17T17:39:25.828Z,4.32
2023-06-17T17:41:52.443Z,4.65
2023-06-17T17:44:19.093Z,4.80
2023-06-17T17:46:46.078Z,4.50
2023-06-17T17:49:12.731Z,4.70
2023-06-17T17:51:39.478Z,4.88
2023-06-17T17:54:06.155Z,4.90
2023-06-17T17:56:32.944Z,4.68
2023-06-17T17:58:59.714Z,4.50
2023-06-17T18:01:26.587Z,4.80
2023-06-17T18:03:53.217Z,4.15
2023-06-17T18:06:20.009Z,4.40
2023-06-17T18:08:46.702Z,5.03
2023-06-17T18:11:13.399Z,4.43
2023-06-17T18:13:40.237Z,4.70
2023-06-17T18:16:07.462Z,5.43
2023-06-17T18:18:34.338Z,4.70
2023-06-17T18:21:00.986Z,4.88
2023-06-17T18:23:27.613Z,5.50
2023-06-17T18:25:54.339Z,4.57
2023-06-17T18:28:21.129Z,4.68
2023-06-17T18:30:47.785Z,4.72
2023-06-17T18:33:14.515Z,4.70
2023-06-17T18:35:41.238Z,4.78
2023-06-17T18:38:09.490Z,4.85
2023-06-17T18:40:36.331Z,4.20
2023-06-17T18:43:03.121Z,4.97
2023-06-17T18:45:29.749Z,4.40
2023-06-17T18:47:56.450Z,4.43
2023-06-17T18:50:23.627Z,4.20
2023-06-17T18:52:51.069Z,4.28
2023-06-17T18:55:18.179Z,4.10
2023-06-17T18:57:44.962Z,4.53
2023-06-17T19:00:11.937Z,4.15
2023-06-17T19:02:38.645Z,4.72
2023-06-17T19:05:06.854Z,4.78
2023-06-17T19:07:33.951Z,4.72
2023-06-17T19:10:01.260Z,4.60
2023-06-17T19:12:31.665Z,4.88
2023-06-17T19:14:59.009Z,4.38
2023-06-17T19:17:26.639Z,4.80
2023-06-17T19:19:53.549Z,4.35
2023-06-17T19:22:20.332Z,4.60
2023-06-17T19:24:47.041Z,5.13
2023-06-17T19:27:13.872Z,4.97
2023-06-17T19:29:40.734Z,4.70
2023-06-17T19:32:07.619Z,5.28
2023-06-17T19:34:34.241Z,5.03
2023-06-17T19:37:01.136Z,4.68
2023-06-17T19:39:27.789Z,4.90
2023-06-17T19:41:54.452Z,4.78
2023-06-17T19:44:21.288Z,4.90
2023-06-17T19:46:47.890Z,4.88
2023-06-17T19:49:14.770Z,5.45
2023-06-17T19:51:41.403Z,4.88
2023-06-17T19:54:08.023Z,7.20
2023-06-17T19:56:34.736Z,4.78
2023-06-17T19:59:01.366Z,5.20
2023-06-17T20:01:28.993Z,5.00
2023-06-17T20:03:55.967Z,5.15
2023-06-17T20:06:23.707Z,4.80
2023-06-17T20:08:52.225Z,5.10
2023-06-17T20:11:20.409Z,4.80
2023-06-17T20:13:47.142Z,5.15
2023-06-17T20:16:13.928Z,4.85
2023-06-17T20:18:40.897Z,5.20
2023-06-17T20:21:07.585Z,5.20
2023-06-17T20:23:34.521Z,5.68
2023-06-17T20:26:01.385Z,5.47
2023-06-17T20:28:29.263Z,5.63
2023-06-17T20:30:56.291Z,5.28
2023-06-17T20:33:24.078Z,5.55
2023-06-17T20:35:54.709Z,6.07
2023-06-17T20:38:21.600Z,5.80
2023-06-17T20:40:48.304Z,5.43
2023-06-17T20:43:15.688Z,6.25
2023-06-17T20:45:42.636Z,6.28
2023-06-17T20:48:09.515Z,7.13
2023-06-17T20:50:36.599Z,7.13
2023-06-17T20:53:03.541Z,7.22
2023-06-17T20:55:31.491Z,6.70
2023-06-17T20:57:58.234Z,6.35
2023-06-17T21:00:25.546Z,6.80
2023-06-17T21:02:52.340Z,7.10
2023-06-17T21:05:19.186Z,6.55
2023-06-17T21:07:46.463Z,6.43
2023-06-17T21:10:13.710Z,6.05
2023-06-17T21:12:40.472Z,6.07
2023-06-17T21:15:07.829Z,6.13
2023-06-17T21:17:34.566Z,7.80
2023-06-17T21:20:01.328Z,13.00
2023-06-17T21:22:27.917Z,11.38
2023-06-17T21:24:54.585Z,8.45
2023-06-17T21:27:21.311Z,7.75
2023-06-17T21:29:49.127Z,7.78
2023-06-17T21:32:15.960Z,9.00
2023-06-17T21:34:42.596Z,7.82
2023-06-17T21:37:09.230Z,7.78
2023-06-17T21:39:35.886Z,7.70
2023-06-17T21:42:02.603Z,11.52
2023-06-17T21:44:29.231Z,9.40
2023-06-17T21:46:56.006Z,8.88
2023-06-17T21:49:22.967Z,7.50
2023-06-17T21:51:50.037Z,8.27
2023-06-17T21:54:16.887Z,8.57
2023-06-17T21:56:43.594Z,7.82
2023-06-17T21:59:10.313Z,9.30
2023-06-17T22:01:37.210Z,8.35
2023-06-17T22:04:04.008Z,7.45
2023-06-17T22:06:32.124Z,7.93
2023-06-17T22:08:58.757Z,8.88
2023-06-17T22:11:25.418Z,8.63
2023-06-17T22:13:52.045Z,8.32
2023-06-17T22:16:19.157Z,7.53
2023-06-17T22:18:46.055Z,7.22
2023-06-17T22:21:12.719Z,6.18
2023-06-17T22:23:39.406Z,6.78
2023-06-17T22:26:06.297Z,6.13
2023-06-17T22:28:32.948Z,6.40
2023-06-17T22:30:59.889Z,7.38
2023-06-17T22:33:26.498Z,7.45
2023-06-17T22:35:53.116Z,7.18
2023-06-17T22:38:19.727Z,8.60
2023-06-17T22:40:46.336Z,7.38
2023-06-17T22:43:14.535Z,7.65
2023-06-17T22:45:41.261Z,7.45
2023-06-17T22:48:07.947Z,7.45
2023-06-17T22:50:34.680Z,6.70
2023-06-17T22:53:01.308Z,7.10
2023-06-17T22:55:27.981Z,6.38
2023-06-17T22:57:54.632Z,7.00
2023-06-17T23:00:21.603Z,7.20
2023-06-17T23:02:48.625Z,8.70
2023-06-17T23:05:15.575Z,7.35
2023-06-17T23:07:42.252Z,7.68
2023-06-17T23:10:09.198Z,7.18
2023-06-17T23:12:35.961Z,7.20
2023-06-17T23:15:03.535Z,7.40
2023-06-17T23:17:30.319Z,6.88
2023-06-17T23:19:59.598Z,8.52
2023-06-17T23:22:27.810Z,7.28
2023-06-17T23:24:54.652Z,7.43
2023-06-17T23:27:28.503Z,7.30
2023-06-17T23:29:56.010Z,7.30
2023-06-17T23:32:22.816Z,7.72
2023-06-17T23:34:50.032Z,7.35
2023-06-17T23:37:16.705Z,6.90
2023-06-17T23:39:43.521Z,7.47
2023-06-17T23:42:10.280Z,7.70
2023-06-17T23:44:37.384Z,7.68
2023-06-17T23:47:04.457Z,7.30
2023-06-17T23:49:35.513Z,7.28
2023-06-17T23:52:02.123Z,7.20
2023-06-17T23:54:28.732Z,7.75
2023-06-17T23:56:55.583Z,7.35
2023-06-17T23:59:22.226Z,7.40
